createdAt,value
2022-12-28T00:01:35.724Z,-0.48
2022-12-28T00:04:31.463Z,-0.56
2022-12-28T00:07:01.217Z,-0.58
2022-12-28T00:09:30.410Z,-0.61
2022-12-28T00:11:58.857Z,-0.60
2022-12-28T00:14:27.772Z,-0.60
2022-12-28T00:16:56.393Z,-0.63
2022-12-28T00:19:25.178Z,-0.64
2022-12-28T00:21:56.148Z,-0.63
2022-12-28T00:24:27.357Z,-0.65
2022-12-28T00:26:57.101Z,-0.70
2022-12-28T00:29:26.046Z,-0.70
2022-12-28T00:31:54.562Z,-0.86
2022-12-28T00:34:23.387Z,-0.96
2022-12-28T00:37:10.049Z,-1.03
2022-12-28T00:39:43.301Z,-0.99
2022-12-28T00:42:12.386Z,-0.95
2022-12-28T00:44:41.419Z,-0.87
2022-12-28T00:47:09.835Z,-0.83
2022-12-28T00:49:38.591Z,-0.78
2022-12-28T00:52:07.132Z,-0.81
2022-12-28T00:54:38.578Z,-0.80
2022-12-28T00:57:09.172Z,-0.79
2022-12-28T00:59:38.239Z,-0.92
2022-12-28T01:02:06.905Z,-0.96
2022-12-28T01:04:35.474Z,-0.97
2022-12-28T01:07:03.794Z,-0.97
2022-12-28T01:09:35.165Z,-0.98
2022-12-28T01:12:03.542Z,-0.97
2022-12-28T01:14:33.883Z,-0.98
2022-12-28T01:17:03.289Z,-1.11
2022-12-28T01:19:33.236Z,-1.12
2022-12-28T01:22:01.896Z,-1.12
2022-12-28T01:24:30.255Z,-1.15
2022-12-28T01:26:59.699Z,-1.11
2022-12-28T01:29:28.422Z,-1.11
2022-12-28T01:31:58.349Z,-1.11
2022-12-28T01:34:27.082Z,-1.13
2022-12-28T01:36:55.506Z,-1.14
2022-12-28T01:39:24.132Z,-1.12
2022-12-28T01:41:53.417Z,-1.07
2022-12-28T01:44:47.079Z,-1.07
2022-12-28T01:47:24.680Z,-1.08
2022-12-28T01:49:58.800Z,-1.06
2022-12-28T01:52:31.515Z,-1.09
2022-12-28T01:55:03.069Z,-1.13
2022-12-28T01:57:33.492Z,-1.15
2022-12-28T02:00:04.669Z,-1.16
2022-12-28T02:02:34.863Z,-1.20
2022-12-28T02:05:04.103Z,-1.23
2022-12-28T02:07:39.101Z,-1.25
2022-12-28T02:10:40.761Z,-1.29
2022-12-28T02:12:58.656Z,-1.30
2022-12-28T02:15:27.344Z,-1.29
2022-12-28T02:17:57.892Z,-1.35
2022-12-28T02:20:31.894Z,-1.35
2022-12-28T02:23:25.045Z,-1.36
2022-12-28T02:26:27.099Z,-1.37
2022-12-28T02:29:46.260Z,-1.37
2022-12-28T02:32:26.811Z,-1.37
2022-12-28T02:35:00.369Z,-1.41
2022-12-28T02:37:33.581Z,-1.42
2022-12-28T02:40:05.055Z,-1.46
2022-12-28T02:42:34.354Z,-1.43
2022-12-28T02:45:20.447Z,-1.48
2022-12-28T02:48:16.348Z,-1.52
2022-12-28T02:50:51.132Z,-1.56
2022-12-28T02:53:31.408Z,-1.53
2022-12-28T02:56:10.489Z,-1.57
2022-12-28T02:59:16.397Z,-1.59
2022-12-28T03:02:09.321Z,-1.66
2022-12-28T03:05:01.087Z,-1.75
2022-12-28T03:08:03.911Z,-1.79
2022-12-28T03:10:36.485Z,-1.80
2022-12-28T03:13:30.565Z,-1.83
2022-12-28T03:16:01.128Z,-1.83
2022-12-28T03:18:49.056Z,-1.80
2022-12-28T03:21:36.519Z,-1.79
2022-12-28T03:27:53.790Z,-1.79
2022-12-28T03:30:44.471Z,-1.77
2022-12-28T03:33:13.656Z,-1.77
2022-12-28T03:35:47.742Z,-1.78
2022-12-28T03:38:27.735Z,-1.78
2022-12-28T03:41:02.817Z,-1.78
2022-12-28T03:43:42.792Z,-1.77
2022-12-28T03:46:17.330Z,-1.76
2022-12-28T03:48:46.831Z,-1.80
2022-12-28T03:51:16.521Z,-1.79
2022-12-28T03:53:48.260Z,-1.78
2022-12-28T03:56:18.755Z,-1.79
2022-12-28T03:58:48.048Z,-1.77
2022-12-28T04:01:16.967Z,-1.78
2022-12-28T04:03:45.731Z,-1.80
2022-12-28T04:06:16.774Z,-1.80
2022-12-28T04:08:47.448Z,-1.96
2022-12-28T04:11:16.496Z,-1.86
2022-12-28T04:13:45.417Z,-1.84
2022-12-28T04:16:15.539Z,-1.80
2022-12-28T04:18:44.853Z,-1.77
2022-12-28T04:21:14.893Z,-1.76
2022-12-28T04:23:44.857Z,-1.77
2022-12-28T04:26:16.920Z,-1.80
2022-12-28T04:28:45.880Z,-1.80
2022-12-28T04:31:15.921Z,-1.81
2022-12-28T04:33:44.465Z,-1.83
2022-12-28T04:36:16.208Z,-1.87
2022-12-28T04:38:44.977Z,-1.88
2022-12-28T04:41:15.585Z,-1.87
2022-12-28T04:43:44.398Z,-1.87
2022-12-28T04:46:14.922Z,-1.93
2022-12-28T04:48:44.151Z,-1.95
2022-12-28T04:51:18.093Z,-1.96
2022-12-28T04:53:47.121Z,-1.98
2022-12-28T04:56:21.379Z,-2.00
2022-12-28T04:58:50.456Z,-2.03
2022-12-28T05:01:49.264Z,-2.01
2022-12-28T05:04:17.824Z,-1.96
2022-12-28T05:06:46.219Z,-1.93
2022-12-28T05:09:31.897Z,-1.93
2022-12-28T05:12:01.902Z,-1.90
2022-12-28T05:14:36.673Z,-1.87
2022-12-28T05:17:06.257Z,-1.86
2022-12-28T05:19:42.908Z,-2.32
2022-12-28T05:22:13.074Z,-1.85
2022-12-28T05:24:42.078Z,-1.86
2022-12-28T05:27:12.937Z,-1.87
2022-12-28T05:29:41.865Z,-1.85
2022-12-28T05:32:10.551Z,-1.88
2022-12-28T05:34:39.045Z,-1.90
2022-12-28T05:37:09.992Z,-1.93
2022-12-28T05:39:38.394Z,-1.94
2022-12-28T05:42:06.908Z,-1.92
2022-12-28T05:44:36.946Z,-1.90
2022-12-28T05:47:05.625Z,-1.91
2022-12-28T05:49:34.121Z,-1.88
2022-12-28T05:52:03.086Z,-1.87
2022-12-28T05:55:00.753Z,-1.83
2022-12-28T05:57:29.366Z,-1.81
2022-12-28T05:59:59.244Z,-1.78
2022-12-28T06:02:28.130Z,-1.73
2022-12-28T06:04:59.241Z,-1.71
2022-12-28T06:07:27.808Z,-1.73
2022-12-28T06:09:56.277Z,-1.71
2022-12-28T06:12:25.619Z,-1.73
2022-12-28T06:14:54.806Z,-1.77
2022-12-28T06:20:13.473Z,-1.74
2022-12-28T06:22:42.413Z,-1.71
2022-12-28T06:25:11.626Z,-1.64
2022-12-28T06:27:40.387Z,-1.63
2022-12-28T06:30:10.481Z,-1.62
2022-12-28T06:32:49.696Z,-1.62
2022-12-28T06:35:21.177Z,-1.60
2022-12-28T06:37:50.210Z,-1.65
2022-12-28T06:40:33.380Z,-1.53
2022-12-28T06:43:09.000Z,-1.49
2022-12-28T06:45:38.540Z,-1.50
2022-12-28T06:48:09.344Z,-1.52
2022-12-28T06:50:40.181Z,-1.55
2022-12-28T06:53:09.200Z,-1.56
2022-12-28T06:55:37.787Z,-1.54
2022-12-28T06:58:06.465Z,-1.51
2022-12-28T07:00:46.140Z,-1.47
2022-12-28T07:03:21.027Z,-1.44
2022-12-28T07:05:49.441Z,-1.42
2022-12-28T07:08:18.168Z,-1.37
2022-12-28T07:10:47.039Z,-1.38
2022-12-28T07:13:15.782Z,-1.38
2022-12-28T07:15:44.403Z,-1.38
2022-12-28T07:18:15.597Z,-1.36
2022-12-28T07:20:45.855Z,-1.32
2022-12-28T07:23:14.886Z,-1.29
2022-12-28T07:25:43.574Z,-1.23
2022-12-28T07:28:12.751Z,-1.18
2022-12-28T07:34:53.639Z,-1.05
2022-12-28T07:37:23.810Z,-0.97
2022-12-28T07:39:52.463Z,-0.86
2022-12-28T07:42:21.144Z,-0.71
2022-12-28T07:44:49.832Z,-0.59
2022-12-28T07:47:18.528Z,-0.42
2022-12-28T07:49:48.045Z,-0.06
2022-12-28T07:52:16.768Z,0.30
2022-12-28T07:54:46.618Z,0.68
2022-12-28T07:57:15.338Z,2.06
2022-12-28T07:59:45.905Z,3.29
2022-12-28T08:02:14.549Z,3.54
2022-12-28T08:04:46.193Z,3.40
2022-12-28T08:07:17.287Z,3.98
2022-12-28T08:09:47.213Z,3.55
2022-12-28T08:12:15.979Z,2.98
2022-12-28T08:14:44.794Z,2.54
2022-12-28T08:17:17.514Z,2.13
2022-12-28T08:19:50.181Z,1.77
2022-12-28T08:22:19.001Z,1.58
2022-12-28T08:24:48.796Z,1.49
2022-12-28T08:27:18.047Z,1.50
2022-12-28T08:29:47.056Z,1.52
2022-12-28T08:32:15.772Z,1.45
2022-12-28T08:38:59.215Z,1.43
2022-12-28T08:41:30.497Z,1.50
2022-12-28T08:43:59.807Z,1.59
2022-12-28T08:46:32.955Z,1.69
2022-12-28T08:49:02.114Z,1.77
2022-12-28T08:51:33.161Z,1.98
2022-12-28T08:54:02.061Z,2.14
2022-12-28T08:56:33.340Z,2.30
2022-12-28T08:59:02.811Z,2.39
2022-12-28T09:01:38.865Z,2.32
2022-12-28T09:04:14.670Z,2.26
2022-12-28T09:06:43.390Z,2.16
2022-12-28T09:09:14.004Z,2.15
2022-12-28T09:11:46.517Z,2.09
2022-12-28T09:14:23.695Z,2.04
2022-12-28T09:17:18.683Z,1.95
2022-12-28T09:19:47.417Z,1.82
2022-12-28T09:22:16.157Z,1.74
2022-12-28T09:24:44.777Z,1.65
2022-12-28T09:27:15.055Z,1.59
2022-12-28T09:29:44.386Z,1.56
2022-12-28T09:32:13.627Z,1.56
2022-12-28T09:34:42.376Z,1.59
2022-12-28T09:37:11.359Z,1.64
2022-12-28T09:39:40.242Z,1.67
2022-12-28T09:42:16.901Z,1.71
2022-12-28T09:45:03.322Z,1.76
2022-12-28T09:47:39.805Z,1.82
2022-12-28T09:50:30.433Z,1.86
2022-12-28T09:53:17.607Z,1.96
2022-12-28T09:55:54.494Z,2.04
2022-12-28T09:58:24.883Z,2.14
2022-12-28T10:00:55.728Z,2.24
2022-12-28T10:03:46.449Z,2.29
2022-12-28T10:06:17.607Z,2.43
2022-12-28T10:08:51.325Z,2.62
2022-12-28T10:11:22.820Z,2.79
2022-12-28T10:13:58.483Z,3.00
2022-12-28T10:16:29.675Z,3.11
2022-12-28T10:19:00.836Z,3.18
2022-12-28T10:21:33.208Z,3.23
2022-12-28T10:26:51.642Z,3.15
2022-12-28T10:29:23.673Z,3.18
2022-12-28T10:32:01.686Z,3.17
2022-12-28T10:34:33.791Z,3.12
2022-12-28T10:39:58.141Z,3.16
2022-12-28T10:42:29.220Z,3.25
2022-12-28T10:45:06.420Z,3.35
2022-12-28T10:47:37.451Z,3.53
2022-12-28T10:50:36.035Z,3.67
2022-12-28T10:52:59.860Z,3.76
2022-12-28T10:55:30.292Z,3.90
2022-12-28T10:58:29.079Z,3.96
2022-12-28T11:01:06.714Z,4.31
2022-12-28T11:03:20.550Z,3.10
2022-12-28T11:04:08.499Z,5.31
2022-12-28T11:06:47.697Z,6.15
2022-12-28T11:09:18.594Z,6.72
2022-12-28T11:11:51.401Z,7.10
2022-12-28T11:14:27.310Z,8.36
2022-12-28T11:16:59.410Z,9.41
2022-12-28T11:19:32.506Z,9.19
2022-12-28T11:22:00.962Z,8.78
2022-12-28T11:24:36.159Z,8.27
2022-12-28T11:27:18.849Z,7.85
2022-12-28T11:29:49.688Z,7.62
2022-12-28T11:32:23.290Z,7.47
2022-12-28T11:34:51.960Z,7.34
2022-12-28T11:37:20.918Z,7.31
2022-12-28T11:39:51.060Z,7.79
2022-12-28T11:42:52.682Z,8.19
2022-12-28T11:45:52.402Z,8.70
2022-12-28T11:48:48.061Z,8.74
2022-12-28T11:51:18.777Z,8.88
2022-12-28T11:53:53.085Z,8.74
2022-12-28T11:56:21.838Z,8.77
2022-12-28T11:59:31.552Z,9.01
2022-12-28T12:02:01.548Z,9.16
2022-12-28T12:04:37.156Z,10.52
2022-12-28T12:07:16.583Z,12.28
2022-12-28T12:09:46.875Z,12.80
2022-12-28T12:12:49.003Z,12.55
2022-12-28T12:15:20.998Z,12.61
2022-12-28T12:17:53.248Z,12.79
2022-12-28T12:20:46.926Z,12.03
2022-12-28T12:23:23.232Z,11.80
2022-12-28T12:25:54.531Z,11.50
2022-12-28T12:28:34.052Z,12.12
2022-12-28T12:31:04.443Z,14.96
2022-12-28T12:33:36.822Z,15.50
2022-12-28T12:36:22.962Z,14.30
2022-12-28T12:39:18.362Z,12.86
2022-12-28T12:41:54.444Z,11.33
2022-12-28T12:44:34.774Z,10.35
2022-12-28T12:47:26.038Z,9.28
2022-12-28T12:50:21.668Z,8.29
2022-12-28T12:52:57.740Z,7.83
2022-12-28T12:55:39.261Z,7.56
2022-12-28T12:58:15.718Z,7.37
2022-12-28T13:01:00.234Z,7.14
2022-12-28T13:03:39.694Z,7.10
2022-12-28T13:06:08.848Z,6.95
2022-12-28T13:08:42.626Z,6.93
2022-12-28T13:11:11.637Z,6.97
2022-12-28T13:13:44.113Z,6.92
2022-12-28T13:16:16.878Z,6.90
2022-12-28T13:18:57.548Z,6.86
2022-12-28T13:21:29.068Z,6.86
2022-12-28T13:24:06.342Z,6.79
2022-12-28T13:26:35.328Z,6.70
2022-12-28T13:29:09.868Z,6.58
2022-12-28T13:31:40.909Z,6.44
2022-12-28T13:34:19.536Z,6.35
2022-12-28T13:36:56.605Z,6.31
2022-12-28T13:39:27.756Z,6.29
2022-12-28T13:41:58.689Z,6.25
2022-12-28T13:44:40.223Z,6.11
2022-12-28T13:47:19.041Z,6.03
2022-12-28T13:50:02.162Z,5.97
2022-12-28T13:52:34.031Z,5.88
2022-12-28T13:55:07.916Z,5.84
2022-12-28T13:57:46.805Z,5.77
2022-12-28T14:00:18.499Z,5.74
2022-12-28T14:02:47.752Z,5.73
2022-12-28T14:05:22.458Z,5.75
2022-12-28T14:08:16.289Z,5.86
2022-12-28T14:10:47.805Z,6.15
2022-12-28T14:13:17.495Z,6.13
2022-12-28T14:15:48.075Z,6.10
2022-12-28T14:18:17.397Z,6.05
2022-12-28T14:20:52.149Z,6.05
2022-12-28T14:23:21.488Z,6.01
2022-12-28T14:25:51.884Z,5.97
2022-12-28T14:28:24.555Z,5.84
2022-12-28T14:31:21.471Z,5.81
2022-12-28T14:34:02.507Z,5.84
2022-12-28T14:36:32.804Z,5.74
2022-12-28T14:39:05.268Z,5.60
2022-12-28T14:41:40.678Z,5.63
2022-12-28T14:47:35.493Z,5.51
2022-12-28T14:50:05.760Z,5.41
2022-12-28T14:52:39.877Z,5.36
2022-12-28T14:55:30.150Z,5.28
2022-12-28T14:58:03.417Z,5.24
2022-12-28T15:00:25.174Z,5.62
2022-12-28T15:00:33.992Z,5.19
2022-12-28T15:03:18.413Z,5.08
2022-12-28T15:05:49.812Z,4.93
2022-12-28T15:08:19.279Z,4.88
2022-12-28T15:10:50.028Z,4.76
2022-12-28T15:13:20.529Z,4.70
2022-12-28T15:15:56.484Z,4.63
2022-12-28T15:18:25.840Z,4.56
2022-12-28T15:20:54.615Z,4.46
2022-12-28T15:23:23.163Z,4.36
2022-12-28T15:25:52.012Z,4.25
2022-12-28T15:28:22.049Z,4.14
2022-12-28T15:30:51.052Z,3.99
2022-12-28T15:33:21.785Z,3.84
2022-12-28T15:35:50.664Z,3.73
2022-12-28T15:38:19.204Z,3.64
2022-12-28T15:40:50.118Z,3.53
2022-12-28T15:43:18.933Z,3.49
2022-12-28T15:45:55.675Z,3.40
2022-12-28T15:48:24.844Z,3.29
2022-12-28T15:50:53.807Z,3.17
2022-12-28T15:53:22.269Z,3.03
2022-12-28T15:56:01.322Z,2.92
2022-12-28T15:58:30.247Z,2.80
2022-12-28T16:01:02.646Z,2.70
2022-12-28T16:03:31.455Z,2.63
2022-12-28T16:06:00.691Z,2.59
2022-12-28T16:08:29.480Z,2.51
2022-12-28T16:11:01.031Z,2.40
2022-12-28T16:13:29.719Z,2.38
2022-12-28T16:16:06.217Z,2.32
2022-12-28T16:18:35.083Z,2.27
2022-12-28T16:21:04.333Z,2.11
2022-12-28T16:23:33.549Z,2.15
2022-12-28T16:26:02.207Z,2.11
2022-12-28T16:28:31.223Z,2.09
2022-12-28T16:31:01.283Z,2.06
2022-12-28T16:33:55.149Z,2.06
2022-12-28T16:36:25.021Z,2.04
2022-12-28T16:38:54.648Z,1.94
2022-12-28T16:41:23.694Z,1.96
2022-12-28T16:43:52.615Z,1.63
2022-12-28T16:46:22.811Z,1.87
2022-12-28T16:48:51.447Z,1.88
2022-12-28T16:51:20.350Z,1.71
2022-12-28T16:53:49.133Z,1.69
2022-12-28T16:56:17.829Z,1.69
2022-12-28T16:58:49.119Z,1.67
2022-12-28T17:01:18.698Z,1.65
2022-12-28T17:03:48.860Z,1.64
2022-12-28T17:06:17.754Z,1.53
2022-12-28T17:08:46.421Z,1.51
2022-12-28T17:11:17.331Z,1.50
2022-12-28T17:13:46.556Z,1.43
2022-12-28T17:16:15.430Z,1.44
2022-12-28T17:18:44.238Z,1.40
2022-12-28T17:21:14.321Z,1.41
2022-12-28T17:23:43.211Z,1.40
2022-12-28T17:26:12.304Z,1.36
2022-12-28T17:28:41.099Z,1.31
2022-12-28T17:31:12.135Z,1.29
2022-12-28T17:33:40.653Z,1.26
2022-12-28T17:36:09.979Z,1.23
2022-12-28T17:38:39.684Z,1.20
2022-12-28T17:41:10.132Z,1.17
2022-12-28T17:43:38.572Z,1.14
2022-12-28T17:46:07.594Z,1.12
2022-12-28T17:48:36.396Z,1.07
2022-12-28T17:51:11.115Z,1.04
2022-12-28T17:53:41.913Z,0.86
2022-12-28T17:56:12.471Z,0.93
2022-12-28T17:58:41.339Z,0.92
2022-12-28T18:01:10.864Z,0.93
2022-12-28T18:03:45.825Z,0.88
2022-12-28T18:06:15.149Z,0.83
2022-12-28T18:08:45.576Z,0.83
2022-12-28T18:11:14.329Z,0.84
2022-12-28T18:13:43.903Z,0.80
2022-12-28T18:16:15.856Z,0.72
2022-12-28T18:18:44.826Z,0.71
2022-12-28T18:21:21.040Z,0.71
2022-12-28T18:24:02.429Z,0.71
2022-12-28T18:26:30.965Z,0.71
2022-12-28T18:28:59.467Z,0.68
2022-12-28T18:32:17.860Z,0.63
2022-12-28T18:34:46.841Z,0.59
2022-12-28T18:37:16.010Z,0.60
2022-12-28T18:39:46.610Z,0.67
2022-12-28T18:42:18.588Z,0.71
2022-12-28T18:47:49.222Z,0.79
2022-12-28T18:50:18.590Z,0.83
2022-12-28T18:52:48.649Z,0.84
2022-12-28T18:55:21.698Z,0.82
2022-12-28T18:57:50.451Z,0.84
2022-12-28T19:00:19.950Z,0.84
2022-12-28T19:02:52.981Z,0.85
2022-12-28T19:05:21.921Z,0.87
2022-12-28T19:07:53.665Z,0.93
2022-12-28T19:10:24.553Z,0.93
2022-12-28T19:12:53.753Z,0.97
2022-12-28T19:15:22.526Z,0.94
2022-12-28T19:17:51.511Z,0.88
2022-12-28T19:20:22.733Z,0.84
2022-12-28T19:22:51.614Z,0.82
2022-12-28T19:25:20.477Z,0.80
2022-12-28T19:27:50.986Z,0.82
2022-12-28T19:30:20.191Z,0.81
2022-12-28T19:32:49.197Z,0.80
2022-12-28T19:35:18.182Z,0.77
2022-12-28T19:37:47.243Z,0.72
2022-12-28T19:40:16.288Z,0.68
2022-12-28T19:42:45.400Z,0.51
2022-12-28T19:45:19.404Z,0.59
2022-12-28T19:47:48.135Z,0.57
2022-12-28T19:50:17.604Z,0.55
2022-12-28T19:52:47.038Z,0.54
2022-12-28T19:55:15.865Z,0.55
2022-12-28T19:57:45.045Z,0.59
2022-12-28T20:00:16.854Z,0.57
2022-12-28T20:02:46.102Z,0.59
2022-12-28T20:05:14.916Z,0.62
2022-12-28T20:07:43.960Z,0.67
2022-12-28T20:10:12.917Z,0.67
2022-12-28T20:12:41.725Z,0.70
2022-12-28T20:16:03.072Z,0.69
2022-12-28T20:18:33.162Z,0.68
2022-12-28T20:21:20.404Z,0.70
2022-12-28T20:23:49.550Z,0.69
2022-12-28T20:26:18.845Z,0.67
2022-12-28T20:28:47.675Z,0.63
2022-12-28T20:31:16.850Z,0.65
2022-12-28T20:33:47.399Z,0.67
2022-12-28T20:36:17.646Z,0.64
2022-12-28T20:38:46.920Z,0.68
2022-12-28T20:41:31.440Z,0.70
2022-12-28T20:44:00.684Z,0.69
2022-12-28T20:46:29.384Z,0.73
2022-12-28T20:48:59.999Z,0.73
2022-12-28T20:51:29.231Z,0.77
2022-12-28T20:54:00.329Z,0.79
2022-12-28T20:56:28.945Z,0.80
2022-12-28T20:59:00.439Z,0.81
2022-12-28T21:01:29.188Z,0.79
2022-12-28T21:03:59.399Z,0.82
2022-12-28T21:06:27.840Z,0.87
2022-12-28T21:08:56.823Z,0.90
2022-12-28T21:11:25.435Z,0.96
2022-12-28T21:13:54.328Z,0.99
2022-12-28T21:16:23.599Z,0.99
2022-12-28T21:18:52.492Z,1.00
2022-12-28T21:21:24.337Z,1.01
2022-12-28T21:23:53.984Z,1.02
2022-12-28T21:26:23.420Z,0.95
2022-12-28T21:28:52.053Z,1.08
2022-12-28T21:31:20.922Z,1.10
2022-12-28T21:33:49.598Z,1.13
2022-12-28T21:36:19.673Z,1.16
2022-12-28T21:38:50.741Z,1.18
2022-12-28T21:41:41.765Z,1.13
2022-12-28T21:44:14.504Z,1.05
2022-12-28T21:46:43.620Z,0.99
2022-12-28T21:49:12.401Z,0.93
2022-12-28T21:51:41.216Z,0.80
2022-12-28T21:54:13.501Z,0.72
2022-12-28T21:56:43.192Z,0.69
2022-12-28T21:59:16.150Z,0.67
2022-12-28T22:02:02.233Z,0.70
2022-12-28T22:04:48.733Z,0.69
2022-12-28T22:07:18.783Z,0.69
2022-12-28T22:10:06.114Z,0.70
2022-12-28T22:12:36.103Z,0.69
2022-12-28T22:15:21.551Z,0.68
2022-12-28T22:17:50.256Z,0.68
2022-12-28T22:20:18.781Z,0.66
2022-12-28T22:22:47.333Z,0.65
2022-12-28T22:25:17.637Z,0.59
2022-12-28T22:27:46.368Z,0.60
2022-12-28T22:30:15.606Z,0.61
2022-12-28T22:32:46.324Z,0.59
2022-12-28T22:35:15.748Z,0.61
2022-12-28T22:37:46.756Z,0.56
2022-12-28T22:40:17.256Z,0.62
2022-12-28T22:42:47.377Z,0.65
2022-12-28T22:45:18.301Z,0.64
2022-12-28T22:47:49.886Z,0.67
2022-12-28T22:50:20.050Z,0.68
2022-12-28T22:55:33.416Z,0.61
2022-12-28T22:58:02.197Z,0.57
2022-12-28T23:00:30.939Z,0.51
2022-12-28T23:02:59.747Z,0.45
2022-12-28T23:05:28.221Z,0.44
2022-12-28T23:07:57.444Z,0.44
2022-12-28T23:10:31.111Z,0.40
2022-12-28T23:13:01.058Z,0.39
2022-12-28T23:15:28.983Z,0.35
2022-12-28T23:18:22.817Z,0.30
2022-12-28T23:21:14.187Z,0.28
2022-12-28T23:24:02.912Z,0.23
2022-12-28T23:26:49.208Z,0.17
2022-12-28T23:29:19.335Z,0.12
2022-12-28T23:31:48.408Z,0.09
2022-12-28T23:34:50.296Z,0.07
2022-12-28T23:37:19.202Z,0.03
2022-12-28T23:39:47.999Z,-0.01
2022-12-28T23:42:16.529Z,-0.02
2022-12-28T23:44:48.294Z,-0.05
2022-12-28T23:47:17.878Z,-0.10
2022-12-28T23:49:46.883Z,-0.14
2022-12-28T23:52:17.673Z,-0.17
2022-12-28T23:54:49.683Z,-0.16
2022-12-28T23:57:18.260Z,-0.22
2022-12-28T23:59:48.200Z,-0.29
